Login to view Products
 
Tuesday, January 22, 2019 (09:22 UTC)
Al Ain International Airport
ICAO: OMAL
IATA: AAN
  • METAR OMAL 220900Z 33008KT 290V360 9999 FEW030 20/10 Q1018 NOSIG=
  • TAF OMAL 220500Z 2206/2312 30010KT 9999 SCT030 BECMG 2220/2222 VRB02KT PROB30 2300/2305 1500 BR BECMG 2307/2309 30008KT=
D:\Input Parser\Destinations\Final\05\OMALL061205002090524588.txt
1